createdAt,value
2018-09-14T00:00:03.890Z,94.60
2018-09-14T00:02:34.596Z,94.70
2018-09-14T00:05:05.501Z,94.80
2018-09-14T00:07:36.456Z,94.80
2018-09-14T00:10:07.221Z,94.80
2018-09-14T00:12:37.957Z,94.90
2018-09-14T00:15:08.712Z,94.80
2018-09-14T00:17:39.397Z,94.80
2018-09-14T00:20:10.137Z,94.80
2018-09-14T00:22:40.855Z,94.80
2018-09-14T00:25:11.513Z,95.00
2018-09-14T00:27:42.228Z,95.00
2018-09-14T00:30:12.928Z,95.10
2018-09-14T00:32:43.745Z,95.10
2018-09-14T00:35:14.473Z,95.10
2018-09-14T00:37:45.176Z,95.10
2018-09-14T00:40:15.860Z,95.10
2018-09-14T00:42:46.588Z,95.40
2018-09-14T00:45:17.433Z,94.90
2018-09-14T00:47:48.136Z,95.10
2018-09-14T00:50:18.849Z,95.10
2018-09-14T00:52:49.580Z,94.80
2018-09-14T00:55:20.309Z,94.80
2018-09-14T00:57:51.166Z,95.00
2018-09-14T01:00:21.877Z,95.00
2018-09-14T01:02:52.616Z,94.80
2018-09-14T01:05:23.295Z,95.00
2018-09-14T01:07:54.026Z,95.00
2018-09-14T01:10:24.724Z,94.90
2018-09-14T01:12:55.421Z,94.90
2018-09-14T01:15:26.093Z,95.20
2018-09-14T01:17:56.826Z,95.00
2018-09-14T01:20:27.521Z,95.10
2018-09-14T01:22:58.207Z,95.20
2018-09-14T01:25:28.884Z,95.30
2018-09-14T01:27:59.581Z,95.50
2018-09-14T01:30:30.288Z,95.40
2018-09-14T01:33:01.013Z,95.40
2018-09-14T01:35:37.091Z,95.50
2018-09-14T01:38:07.806Z,95.60
2018-09-14T01:40:38.500Z,95.80
2018-09-14T01:43:09.181Z,95.70
2018-09-14T01:45:39.905Z,95.70
2018-09-14T01:48:10.610Z,95.60
2018-09-14T01:50:41.327Z,95.60
2018-09-14T01:53:12.205Z,95.70
2018-09-14T01:55:42.992Z,95.60
2018-09-14T01:58:13.672Z,95.80
2018-09-14T02:00:44.372Z,95.90
2018-09-14T02:03:15.385Z,96.00
2018-09-14T02:05:46.292Z,96.00
2018-09-14T02:08:16.999Z,96.20
2018-09-14T02:10:47.715Z,96.30
2018-09-14T02:13:18.432Z,96.20
2018-09-14T02:15:49.320Z,96.20
2018-09-14T02:18:20.053Z,96.30
2018-09-14T02:20:50.723Z,96.50
2018-09-14T02:23:21.596Z,96.30
2018-09-14T02:25:52.300Z,96.20
2018-09-14T02:28:23.040Z,96.10
2018-09-14T02:30:53.749Z,96.10
2018-09-14T02:33:24.453Z,96.20
2018-09-14T02:35:55.121Z,96.20
2018-09-14T02:38:25.875Z,96.20
2018-09-14T02:40:56.554Z,96.20
2018-09-14T02:43:27.250Z,96.20
2018-09-14T02:45:57.947Z,96.20
2018-09-14T02:48:28.966Z,96.30
2018-09-14T02:50:59.655Z,96.30
2018-09-14T02:53:30.719Z,96.30
2018-09-14T02:56:01.637Z,96.30
2018-09-14T02:58:32.331Z,96.30
2018-09-14T03:01:03.046Z,96.40
2018-09-14T03:03:33.786Z,96.40
2018-09-14T03:06:04.467Z,96.30
2018-09-14T03:08:35.196Z,96.40
2018-09-14T03:11:06.457Z,96.20
2018-09-14T03:13:37.113Z,96.10
2018-09-14T03:16:07.820Z,95.90
2018-09-14T03:18:38.533Z,95.80
2018-09-14T03:21:09.269Z,95.70
2018-09-14T03:23:39.929Z,95.60
2018-09-14T03:26:10.620Z,95.40
2018-09-14T03:28:41.433Z,95.30
2018-09-14T03:31:12.144Z,95.20
2018-09-14T03:33:42.810Z,95.10
2018-09-14T03:36:13.513Z,95.20
2018-09-14T03:38:44.202Z,95.00
2018-09-14T03:41:14.909Z,95.30
2018-09-14T03:43:45.646Z,95.20
2018-09-14T03:46:16.328Z,95.30
2018-09-14T03:48:50.034Z,95.40
2018-09-14T03:51:20.762Z,95.30
2018-09-14T03:53:51.451Z,95.30
2018-09-14T03:56:22.161Z,95.30
2018-09-14T03:58:52.840Z,95.40
2018-09-14T04:01:23.644Z,95.30
2018-09-14T04:03:54.399Z,95.20
2018-09-14T04:06:25.083Z,95.30
2018-09-14T04:08:55.800Z,95.30
2018-09-14T04:11:26.484Z,95.40
2018-09-14T04:13:57.191Z,95.50
2018-09-14T04:16:27.885Z,95.80
2018-09-14T04:19:03.764Z,95.60
2018-09-14T04:21:35.697Z,95.70
2018-09-14T04:24:06.420Z,95.80
2018-09-14T04:26:37.131Z,96.10
2018-09-14T04:29:08.275Z,96.30
2018-09-14T04:31:43.512Z,96.50
2018-09-14T04:34:18.749Z,96.60
2018-09-14T04:36:50.072Z,96.60
2018-09-14T04:39:20.742Z,96.70
2018-09-14T04:41:51.653Z,96.60
2018-09-14T04:44:22.398Z,96.40
2018-09-14T04:46:53.303Z,96.40
2018-09-14T04:49:23.960Z,96.40
2018-09-14T04:51:54.709Z,96.50
2018-09-14T04:54:25.389Z,96.60
2018-09-14T04:56:56.301Z,96.70
2018-09-14T04:59:26.972Z,96.70
2018-09-14T05:01:59.900Z,96.50
2018-09-14T05:04:30.595Z,96.60
2018-09-14T05:07:01.309Z,96.70
2018-09-14T05:09:32.003Z,96.80
2018-09-14T05:12:02.687Z,96.90
2018-09-14T05:14:33.413Z,96.90
2018-09-14T05:17:04.107Z,96.90
2018-09-14T05:19:34.828Z,96.70
2018-09-14T05:22:05.540Z,96.60
2018-09-14T05:24:36.340Z,96.70
2018-09-14T05:27:07.190Z,96.80
2018-09-14T05:29:38.123Z,96.70
2018-09-14T05:32:08.805Z,96.60
2018-09-14T05:34:39.517Z,96.70
2018-09-14T05:37:10.223Z,96.80
2018-09-14T05:39:40.933Z,96.80
2018-09-14T05:42:11.613Z,96.90
2018-09-14T05:44:42.326Z,96.80
2018-09-14T05:47:13.036Z,96.70
2018-09-14T05:49:43.714Z,96.70
2018-09-14T05:52:14.411Z,96.70
2018-09-14T05:54:45.296Z,96.60
2018-09-14T05:57:16.024Z,96.50
2018-09-14T05:59:46.694Z,96.50
2018-09-14T06:02:17.560Z,96.30
2018-09-14T06:04:48.282Z,96.50
2018-09-14T06:07:18.993Z,96.80
2018-09-14T06:09:49.668Z,96.50
2018-09-14T06:12:20.532Z,96.10
2018-09-14T06:14:51.217Z,96.10
2018-09-14T06:17:21.941Z,96.20
2018-09-14T06:19:52.629Z,96.20
2018-09-14T06:22:23.429Z,96.30
2018-09-14T06:24:54.260Z,96.30
2018-09-14T06:27:24.991Z,96.30
2018-09-14T06:29:55.665Z,96.20
2018-09-14T06:32:26.360Z,96.30
2018-09-14T06:34:57.069Z,96.00
2018-09-14T06:37:27.792Z,96.00
2018-09-14T06:39:58.561Z,95.90
2018-09-14T06:42:29.244Z,95.70
2018-09-14T06:45:00.043Z,95.60
2018-09-14T06:47:30.896Z,95.70
2018-09-14T06:50:01.611Z,95.90
2018-09-14T06:52:33.392Z,95.80
2018-09-14T06:55:04.277Z,95.80
2018-09-14T06:57:34.944Z,95.80
2018-09-14T07:00:05.809Z,95.80
2018-09-14T07:02:36.600Z,95.50
2018-09-14T07:05:07.385Z,95.30
2018-09-14T07:07:38.056Z,95.20
2018-09-14T07:10:08.775Z,95.20
2018-09-14T07:12:39.480Z,94.90
2018-09-14T07:15:10.219Z,94.90
2018-09-14T07:17:40.933Z,95.00
2018-09-14T07:20:11.800Z,95.10
2018-09-14T07:22:42.539Z,95.10
2018-09-14T07:25:13.286Z,95.00
2018-09-14T07:27:44.146Z,95.00
2018-09-14T07:30:14.980Z,95.00
2018-09-14T07:32:45.922Z,95.10
2018-09-14T07:35:16.809Z,95.30
2018-09-14T07:37:47.525Z,94.70
2018-09-14T07:40:18.211Z,94.90
2018-09-14T07:42:48.899Z,94.80
2018-09-14T07:45:19.613Z,94.70
2018-09-14T07:47:50.340Z,94.20
2018-09-14T07:50:21.025Z,94.00
2018-09-14T07:52:51.712Z,93.90
2018-09-14T07:55:22.493Z,93.90
2018-09-14T07:57:53.328Z,94.20
2018-09-14T08:00:24.045Z,93.80
2018-09-14T08:02:54.754Z,93.70
2018-09-14T08:05:25.636Z,93.60
2018-09-14T08:07:56.320Z,93.40
2018-09-14T08:10:27.041Z,93.20
2018-09-14T08:13:01.318Z,93.00
2018-09-14T08:15:32.011Z,92.90
2018-09-14T08:18:02.729Z,92.70
2018-09-14T08:20:33.609Z,92.60
2018-09-14T08:23:04.652Z,92.60
2018-09-14T08:25:35.319Z,92.40
2018-09-14T08:28:06.090Z,92.50
2018-09-14T08:30:36.952Z,92.10
2018-09-14T08:33:07.652Z,91.60
2018-09-14T08:38:15.376Z,91.40
2018-09-14T08:40:46.069Z,91.20
2018-09-14T08:43:16.785Z,91.20
2018-09-14T08:45:47.468Z,91.20
2018-09-14T08:48:18.184Z,90.40
2018-09-14T08:50:49.092Z,90.30
2018-09-14T08:53:19.760Z,90.20
2018-09-14T08:55:50.468Z,90.00
2018-09-14T08:58:21.153Z,89.80
2018-09-14T09:00:51.900Z,88.90
2018-09-14T09:03:22.768Z,88.60
2018-09-14T09:05:53.477Z,88.60
2018-09-14T09:08:24.140Z,88.10
2018-09-14T09:10:54.895Z,88.20
2018-09-14T09:13:25.572Z,88.00
2018-09-14T09:15:56.268Z,87.60
2018-09-14T09:18:26.948Z,85.30
2018-09-14T09:20:57.656Z,83.90
2018-09-14T09:23:28.365Z,81.00
2018-09-14T09:25:59.274Z,81.60
2018-09-14T09:28:29.957Z,82.20
2018-09-14T09:31:01.010Z,80.00
2018-09-14T09:33:31.732Z,80.30
2018-09-14T09:36:02.461Z,79.70
2018-09-14T09:38:33.532Z,79.70
2018-09-14T09:41:04.226Z,79.70
2018-09-14T09:43:35.084Z,78.00
2018-09-14T09:46:05.912Z,76.20
2018-09-14T09:48:36.608Z,74.90
2018-09-14T09:51:07.298Z,75.20
2018-09-14T09:53:38.215Z,73.80
2018-09-14T09:56:08.909Z,75.40
2018-09-14T09:58:39.660Z,76.00
2018-09-14T10:01:15.816Z,73.90
2018-09-14T10:03:51.968Z,74.30
2018-09-14T10:06:23.892Z,74.00
2018-09-14T10:08:55.476Z,72.60
2018-09-14T10:11:26.849Z,69.10
2018-09-14T10:13:57.568Z,67.40
2018-09-14T10:16:28.468Z,66.50
2018-09-14T10:18:59.193Z,68.00
2018-09-14T10:21:29.964Z,69.40
2018-09-14T10:24:00.856Z,68.40
2018-09-14T10:26:31.831Z,68.40
2018-09-14T10:29:02.635Z,70.10
2018-09-14T10:31:33.455Z,68.70
2018-09-14T10:34:04.195Z,68.60
2018-09-14T10:36:35.087Z,69.60
2018-09-14T10:39:08.992Z,70.70
2018-09-14T10:41:39.721Z,70.00
2018-09-14T10:44:10.436Z,69.50
2018-09-14T10:46:41.148Z,69.20
2018-09-14T10:49:11.861Z,68.80
2018-09-14T10:51:42.586Z,64.90
2018-09-14T10:54:13.329Z,66.20
2018-09-14T10:56:44.040Z,65.70
2018-09-14T10:59:14.777Z,64.10
2018-09-14T11:01:45.464Z,63.60
2018-09-14T11:04:16.216Z,63.10
2018-09-14T11:06:47.197Z,63.40
2018-09-14T11:09:18.001Z,64.00
2018-09-14T11:11:48.714Z,66.20
2018-09-14T11:14:19.425Z,63.40
2018-09-14T11:16:50.133Z,61.90
2018-09-14T11:19:20.844Z,61.30
2018-09-14T11:21:51.737Z,63.00
2018-09-14T11:24:22.453Z,60.80
2018-09-14T11:26:53.146Z,61.50
2018-09-14T11:29:23.853Z,59.10
2018-09-14T11:31:54.569Z,59.50
2018-09-14T11:34:25.269Z,58.90
2018-09-14T11:36:56.189Z,58.70
2018-09-14T11:39:26.877Z,61.00
2018-09-14T11:41:57.575Z,57.20
2018-09-14T11:44:28.333Z,57.80
2018-09-14T11:46:59.237Z,57.30
2018-09-14T11:49:29.939Z,57.00
2018-09-14T11:52:00.860Z,57.90
2018-09-14T11:54:31.547Z,58.70
2018-09-14T11:57:02.255Z,58.10
2018-09-14T11:59:32.981Z,57.60
2018-09-14T12:02:03.705Z,58.50
2018-09-14T12:04:34.425Z,59.20
2018-09-14T12:07:05.117Z,56.60
2018-09-14T12:09:35.849Z,55.40
2018-09-14T12:12:06.533Z,55.10
2018-09-14T12:14:36.948Z,54.60
2018-09-14T12:17:07.634Z,53.90
2018-09-14T12:19:38.305Z,55.10
2018-09-14T12:22:09.140Z,55.60
2018-09-14T12:24:39.987Z,53.80
2018-09-14T12:27:10.388Z,52.00
2018-09-14T12:29:41.048Z,53.30
2018-09-14T12:32:11.945Z,54.00
2018-09-14T12:34:42.635Z,54.80
2018-09-14T12:37:13.337Z,55.30
2018-09-14T12:39:44.028Z,55.40
2018-09-14T12:42:14.748Z,55.30
2018-09-14T12:44:45.451Z,53.10
2018-09-14T12:47:15.861Z,54.20
2018-09-14T12:49:46.569Z,54.50
2018-09-14T12:52:16.948Z,52.90
2018-09-14T12:54:47.662Z,53.50
2018-09-14T12:57:18.331Z,52.80
2018-09-14T12:59:49.040Z,50.90
2018-09-14T13:02:19.712Z,52.00
2018-09-14T13:04:50.420Z,50.40
2018-09-14T13:07:21.337Z,50.60
2018-09-14T13:09:52.086Z,50.90
2018-09-14T13:12:22.776Z,50.40
2018-09-14T13:14:53.222Z,51.20
2018-09-14T13:17:24.047Z,50.80
2018-09-14T13:19:54.735Z,51.50
2018-09-14T13:22:25.139Z,50.70
2018-09-14T13:24:55.530Z,51.70
2018-09-14T13:27:26.424Z,51.00
2018-09-14T13:29:56.808Z,50.00
2018-09-14T13:32:27.230Z,50.40
2018-09-14T13:34:57.638Z,51.70
2018-09-14T13:37:28.056Z,51.70
2018-09-14T13:39:58.436Z,50.10
2018-09-14T13:42:29.201Z,51.00
2018-09-14T13:44:59.653Z,50.20
2018-09-14T13:47:30.053Z,50.70
2018-09-14T13:50:00.472Z,48.60
2018-09-14T13:52:30.849Z,48.40
2018-09-14T13:55:01.256Z,49.80
2018-09-14T13:57:31.629Z,48.80
2018-09-14T14:00:03.076Z,48.30
2018-09-14T14:02:33.900Z,46.70
2018-09-14T14:05:04.433Z,48.00
2018-09-14T14:07:34.823Z,48.10
2018-09-14T14:10:05.609Z,48.90
2018-09-14T14:12:35.980Z,48.90
2018-09-14T14:15:06.795Z,47.80
2018-09-14T14:17:37.486Z,48.30
2018-09-14T14:20:08.365Z,47.40
2018-09-14T14:22:38.785Z,48.10
2018-09-14T14:25:09.308Z,48.00
2018-09-14T14:27:39.712Z,48.10
2018-09-14T14:30:10.123Z,49.00
2018-09-14T14:32:40.529Z,47.90
2018-09-14T14:35:10.945Z,49.10
2018-09-14T14:37:41.536Z,48.40
2018-09-14T14:40:11.972Z,46.50
2018-09-14T14:42:42.368Z,46.90
2018-09-14T14:45:12.827Z,46.90
2018-09-14T14:47:43.236Z,46.40
2018-09-14T14:50:13.729Z,46.70
2018-09-14T14:52:44.153Z,46.70
2018-09-14T14:55:14.620Z,47.70
2018-09-14T14:57:45.144Z,48.70
2018-09-14T15:00:15.550Z,47.60
2018-09-14T15:02:45.977Z,47.40
2018-09-14T15:05:16.480Z,48.20
2018-09-14T15:07:46.911Z,47.40
2018-09-14T15:10:18.050Z,48.80
2018-09-14T15:12:48.493Z,47.90
2018-09-14T15:15:18.921Z,48.60
2018-09-14T15:17:49.334Z,47.60
2018-09-14T15:20:19.706Z,48.20
2018-09-14T15:22:50.115Z,48.40
2018-09-14T15:25:20.513Z,48.00
2018-09-14T15:27:51.103Z,47.60
2018-09-14T15:30:21.642Z,48.60
2018-09-14T15:32:52.109Z,48.10
2018-09-14T15:35:22.506Z,48.40
2018-09-14T15:37:52.916Z,47.90
2018-09-14T15:40:23.847Z,48.00
2018-09-14T15:42:54.221Z,48.90
2018-09-14T15:45:24.828Z,48.00
2018-09-14T15:47:55.229Z,48.70
2018-09-14T15:50:25.632Z,48.40
2018-09-14T15:52:56.028Z,48.60
2018-09-14T15:55:26.436Z,48.60
2018-09-14T15:57:57.136Z,49.10
2018-09-14T16:00:27.557Z,49.40
2018-09-14T16:02:57.939Z,48.10
2018-09-14T16:05:28.412Z,48.40
2018-09-14T16:07:58.812Z,48.80
2018-09-14T16:10:29.224Z,47.90
2018-09-14T16:12:59.904Z,48.60
2018-09-14T16:15:30.284Z,47.70
2018-09-14T16:18:00.698Z,47.90
2018-09-14T16:20:31.272Z,47.80
2018-09-14T16:23:01.690Z,47.80
2018-09-14T16:25:32.360Z,47.00
2018-09-14T16:28:03.733Z,47.70
2018-09-14T16:30:35.156Z,47.50
2018-09-14T16:33:05.925Z,47.30
2018-09-14T16:35:36.605Z,48.00
2018-09-14T16:38:07.040Z,48.40
2018-09-14T16:40:37.572Z,48.80
2018-09-14T16:43:07.973Z,48.40
2018-09-14T16:45:38.409Z,48.40
2018-09-14T16:48:09.067Z,49.50
2018-09-14T16:50:39.805Z,48.20
2018-09-14T16:53:10.207Z,48.60
2018-09-14T16:55:40.604Z,48.00
2018-09-14T16:58:11.293Z,48.60
2018-09-14T17:00:41.700Z,49.20
2018-09-14T17:03:12.101Z,49.30
2018-09-14T17:05:42.537Z,49.20
2018-09-14T17:08:13.211Z,49.70
2018-09-14T17:10:43.913Z,49.40
2018-09-14T17:13:14.589Z,50.20
2018-09-14T17:15:45.024Z,50.10
2018-09-14T17:18:15.424Z,49.70
2018-09-14T17:20:45.813Z,50.20
2018-09-14T17:23:16.794Z,50.40
2018-09-14T17:25:47.178Z,50.30
2018-09-14T17:28:17.589Z,51.40
2018-09-14T17:30:48.256Z,50.50
2018-09-14T17:33:18.660Z,51.60
2018-09-14T17:35:49.349Z,52.50
2018-09-14T17:38:19.857Z,51.90
2018-09-14T17:40:50.340Z,51.60
2018-09-14T17:43:20.762Z,51.70
2018-09-14T17:45:51.153Z,52.10
2018-09-14T17:48:21.569Z,52.50
2018-09-14T17:50:51.992Z,52.80
2018-09-14T17:53:22.391Z,52.90
2018-09-14T17:55:52.781Z,53.00
2018-09-14T17:58:23.244Z,53.60
2018-09-14T18:00:53.940Z,54.00
2018-09-14T18:03:24.698Z,54.60
2018-09-14T18:05:55.586Z,53.80
2018-09-14T18:08:26.222Z,53.60
2018-09-14T18:10:56.634Z,55.00
2018-09-14T18:13:27.037Z,55.60
2018-09-14T18:15:57.685Z,55.20
2018-09-14T18:18:28.757Z,55.00
2018-09-14T18:20:59.157Z,55.80
2018-09-14T18:23:29.536Z,56.10
2018-09-14T18:26:00.612Z,56.60
2018-09-14T18:28:30.990Z,57.60
2018-09-14T18:31:01.709Z,57.00
2018-09-14T18:33:32.400Z,58.20
2018-09-14T18:36:03.110Z,58.90
2018-09-14T18:38:33.956Z,58.80
2018-09-14T18:41:04.675Z,58.90
2018-09-14T18:43:35.396Z,57.80
2018-09-14T18:46:06.067Z,58.40
2018-09-14T18:48:36.760Z,58.10
2018-09-14T18:51:07.461Z,58.50
2018-09-14T18:53:38.601Z,58.90
2018-09-14T18:56:09.260Z,59.50
2018-09-14T18:58:39.957Z,58.90
2018-09-14T19:01:10.612Z,59.30
2018-09-14T19:03:41.329Z,59.40
2018-09-14T19:06:12.413Z,59.80
2018-09-14T19:08:43.125Z,59.80
2018-09-14T19:11:13.812Z,59.80
2018-09-14T19:13:44.530Z,60.60
2018-09-14T19:16:15.216Z,61.00
2018-09-14T19:18:46.300Z,62.30
2018-09-14T19:21:16.994Z,63.50
2018-09-14T19:23:47.648Z,62.50
2018-09-14T19:26:18.354Z,62.90
2018-09-14T19:28:49.217Z,64.20
2018-09-14T19:31:19.940Z,64.00
2018-09-14T19:33:50.666Z,64.40
2018-09-14T19:36:21.385Z,64.00
2018-09-14T19:38:52.065Z,64.20
2018-09-14T19:41:23.372Z,65.30
2018-09-14T19:43:54.049Z,65.00
2018-09-14T19:46:24.736Z,65.70
2018-09-14T19:48:55.392Z,65.50
2018-09-14T19:51:26.138Z,66.80
2018-09-14T19:53:56.989Z,67.30
2018-09-14T19:56:27.712Z,66.80
2018-09-14T19:58:58.728Z,68.10
2018-09-14T20:01:29.445Z,68.30
2018-09-14T20:04:00.124Z,68.00
2018-09-14T20:06:30.807Z,67.20
2018-09-14T20:09:01.460Z,68.20
2018-09-14T20:11:32.137Z,68.00
2018-09-14T20:14:03.036Z,68.20
2018-09-14T20:16:33.700Z,67.90
2018-09-14T20:19:04.407Z,67.40
2018-09-14T20:21:35.078Z,67.70
2018-09-14T20:24:05.790Z,67.40
2018-09-14T20:26:36.652Z,68.50
2018-09-14T20:29:07.360Z,67.50
2018-09-14T20:31:38.033Z,67.90
2018-09-14T20:34:08.732Z,68.10
2018-09-14T20:36:39.451Z,69.20
2018-09-14T20:39:11.708Z,70.00
2018-09-14T20:41:42.423Z,69.30
2018-09-14T20:44:13.122Z,70.10
2018-09-14T20:46:43.824Z,69.50
2018-09-14T20:49:14.484Z,70.30
2018-09-14T20:51:45.280Z,70.80
2018-09-14T20:54:16.140Z,71.50
2018-09-14T20:56:46.836Z,71.40
2018-09-14T20:59:17.716Z,72.20
2018-09-14T21:01:48.681Z,72.20
2018-09-14T21:04:19.431Z,71.90
2018-09-14T21:06:50.265Z,71.60
2018-09-14T21:09:20.957Z,72.30
2018-09-14T21:11:51.647Z,72.00
2018-09-14T21:14:22.341Z,71.90
2018-09-14T21:16:53.018Z,71.60
2018-09-14T21:19:23.718Z,71.50
2018-09-14T21:21:54.401Z,71.60
2018-09-14T21:24:25.091Z,71.70
2018-09-14T21:26:55.772Z,71.10
2018-09-14T21:29:26.453Z,70.20
2018-09-14T21:31:57.121Z,70.00
2018-09-14T21:34:27.811Z,69.80
2018-09-14T21:36:58.480Z,69.60
2018-09-14T21:39:29.188Z,70.00
2018-09-14T21:41:59.861Z,70.90
2018-09-14T21:44:30.558Z,70.50
2018-09-14T21:47:01.244Z,69.20
2018-09-14T21:49:31.971Z,68.90
2018-09-14T21:52:02.650Z,68.60
2018-09-14T21:54:33.333Z,68.80
2018-09-14T21:57:04.048Z,68.80
2018-09-14T21:59:34.715Z,68.70
2018-09-14T22:02:05.437Z,68.40
2018-09-14T22:04:36.103Z,67.90
2018-09-14T22:07:07.774Z,68.60
2018-09-14T22:09:38.432Z,68.20
2018-09-14T22:12:09.155Z,68.20
2018-09-14T22:14:39.816Z,68.60
2018-09-14T22:17:10.528Z,68.30
2018-09-14T22:19:41.220Z,68.40
2018-09-14T22:22:11.929Z,68.60
2018-09-14T22:24:42.772Z,69.20
2018-09-14T22:27:13.459Z,68.70
2018-09-14T22:29:44.164Z,69.70
2018-09-14T22:32:14.864Z,68.80
2018-09-14T22:34:45.773Z,69.00
2018-09-14T22:37:16.472Z,68.80
2018-09-14T22:39:47.132Z,69.00
2018-09-14T22:42:17.837Z,69.00
2018-09-14T22:44:48.594Z,69.10
2018-09-14T22:47:19.297Z,69.00
2018-09-14T22:49:49.977Z,70.20
2018-09-14T22:52:20.714Z,69.70
2018-09-14T22:54:51.449Z,70.20
2018-09-14T22:57:22.136Z,69.40
2018-09-14T22:59:52.826Z,69.80
2018-09-14T23:02:23.536Z,70.50
2018-09-14T23:04:54.209Z,70.70
2018-09-14T23:07:24.916Z,71.20
2018-09-14T23:09:55.572Z,71.70
2018-09-14T23:12:26.265Z,70.80
2018-09-14T23:14:56.948Z,71.30
2018-09-14T23:17:27.596Z,71.00
2018-09-14T23:19:58.284Z,71.10
2018-09-14T23:22:28.947Z,70.80
2018-09-14T23:24:59.643Z,70.70
2018-09-14T23:48:55.913Z,71.00
2018-09-14T23:51:26.055Z,71.40
2018-09-14T23:54:01.400Z,70.60
2018-09-14T23:56:36.836Z,70.80
2018-09-14T23:59:07.496Z,71.10
